Acapulco G. Alvarez, Mexico

12:00 AM CST on February 11, 2016 (GMT -0600)
Acapulco AMK | | Change Station
CLOSE
Current Station
Personal Weather Station
Location: Acapulco, GUERRERO
Elevation: 23 ft
Nearby Weather Stations

Elev 23 ft 16.78 °N, 99.81 °W | Updated 14 minutes ago

Mostly Cloudy
Mostly Cloudy
79.4 °F
Feels Like 83 °F
N
0.0
Wind Variable Wind from West
Gusts 0.0 mph

Today
High -- | Low -- °F
--% Chance of Precip.
Yesterday
High -- | Low -- °F
Precip. -- in
Pressure 29.97 in
Visibility 7.0 miles
Clouds Scattered Clouds 10000 ft
Mostly Cloudy 30000 ft
Heat Index 83 °F
Dew Point 73 °F
Humidity 80%
Rainfall in
Snow Depth Not available.
7:07 AM 6:39 PM
Waxing Crescent, 9% visible
METAR MMAA 110545Z 07003KT 7SM SCT100 BKN300 25/22 A2998 RMK SLP149 57007 955 8/032 HZY
Pressure 29.97 in
Visibility 7.0 miles
Clouds Scattered Clouds 10000 ft
Mostly Cloudy 30000 ft
Heat Index 83 °F
Dew Point 73 °F
Humidity 80%
Rainfall in
Snow Depth Not available.
7:07 AM 6:39 PM
Waxing Crescent, 9% visible
METAR MMAA 110545Z 07003KT 7SM SCT100 BKN300 25/22 A2998 RMK SLP149 57007 955 8/032 HZY

10-Day Weather Forecast

No radar image for this location.
×

Almanac

Astronomy

Feb. 11, 2016 Rise Set
Actual Time
Civil Twilight
Nautical Twilight
Astronomical Twilight
Moon
Length of Visible Light
Length of Day
Tomorrow will be .
, % of the Moon is Illuminated

Today's Extremes

Country Highs Country Lows

Community

WunderPhotos

Upload Photos

1,892,023 photos uploaded!

WunderBlog® & News

Nearby

Air Quality

  Air Quality AQ Index Pollutant
Not available.

Snow Depth

Station Depth Elevation

Earthquake Activity

City Distance Mag. Time & Date
Minimum magnitude displayed is 2.5.

Coastal Water Temperatures

Place Temperature

Stations

Nearby Weather Stations

Station Location Temp. Windchill Dew Point Humidity Wind Precip. Elev Updated Type